sensor_id;sensor_type;location;lat;lon;timestamp;temperature;humidity
29547;DHT22;40782;47.264;11.330;2022-12-08T00:00:09;0.10;99.90
29547;DHT22;40782;47.264;11.330;2022-12-08T00:02:36;0.10;99.90
29547;DHT22;40782;47.264;11.330;2022-12-08T00:05:03;0.10;99.90
29547;DHT22;40782;47.264;11.330;2022-12-08T00:07:48;0.10;95.70
29547;DHT22;40782;47.264;11.330;2022-12-08T00:10:32;0.10;62.60
29547;DHT22;40782;47.264;11.330;2022-12-08T00:13:01;0.00;45.90
29547;DHT22;40782;47.264;11.330;2022-12-08T00:15:28;0.00;74.20
29547;DHT22;40782;47.264;11.330;2022-12-08T00:17:55;0.00;63.50
29547;DHT22;40782;47.264;11.330;2022-12-08T00:20:23;0.00;37.90
29547;DHT22;40782;47.264;11.330;2022-12-08T00:22:50;-0.10;6.20
29547;DHT22;40782;47.264;11.330;2022-12-08T00:25:17;-0.20;3.80
29547;DHT22;40782;47.264;11.330;2022-12-08T00:27:44;-0.20;39.10
29547;DHT22;40782;47.264;11.330;2022-12-08T00:30:13;-0.20;12.90
29547;DHT22;40782;47.264;11.330;2022-12-08T00:32:40;-0.20;1.00
29547;DHT22;40782;47.264;11.330;2022-12-08T00:35:07;-0.30;1.00
29547;DHT22;40782;47.264;11.330;2022-12-08T00:37:35;-0.30;1.40
29547;DHT22;40782;47.264;11.330;2022-12-08T00:40:02;-0.30;46.50
29547;DHT22;40782;47.264;11.330;2022-12-08T00:42:29;-0.30;12.20
29547;DHT22;40782;47.264;11.330;2022-12-08T00:44:56;-0.20;1.00
29547;DHT22;40782;47.264;11.330;2022-12-08T00:47:25;-0.30;9.70
29547;DHT22;40782;47.264;11.330;2022-12-08T00:49:52;-0.40;33.30
29547;DHT22;40782;47.264;11.330;2022-12-08T00:52:19;-0.30;66.00
29547;DHT22;40782;47.264;11.330;2022-12-08T00:54:46;-0.30;78.60
29547;DHT22;40782;47.264;11.330;2022-12-08T00:57:13;-0.30;22.20
29547;DHT22;40782;47.264;11.330;2022-12-08T00:59:41;-0.30;1.00
29547;DHT22;40782;47.264;11.330;2022-12-08T01:02:08;-0.40;1.00
29547;DHT22;40782;47.264;11.330;2022-12-08T01:04:37;-0.30;20.20
29547;DHT22;40782;47.264;11.330;2022-12-08T01:07:04;-0.30;26.30
29547;DHT22;40782;47.264;11.330;2022-12-08T01:09:31;-0.30;34.30
29547;DHT22;40782;47.264;11.330;2022-12-08T01:11:59;-0.30;32.20
29547;DHT22;40782;47.264;11.330;2022-12-08T01:14:26;-0.30;26.80
29547;DHT22;40782;47.264;11.330;2022-12-08T01:16:53;-0.30;13.10
29547;DHT22;40782;47.264;11.330;2022-12-08T01:19:20;-0.40;1.00
29547;DHT22;40782;47.264;11.330;2022-12-08T01:21:48;-0.50;1.00
29547;DHT22;40782;47.264;11.330;2022-12-08T01:24:18;-0.60;1.00
29547;DHT22;40782;47.264;11.330;2022-12-08T01:26:46;-0.60;1.00
29547;DHT22;40782;47.264;11.330;2022-12-08T01:29:13;-0.50;1.00
29547;DHT22;40782;47.264;11.330;2022-12-08T01:31:40;-0.50;1.00
29547;DHT22;40782;47.264;11.330;2022-12-08T01:34:09;-0.50;1.00
29547;DHT22;40782;47.264;11.330;2022-12-08T01:36:37;-0.50;1.00
29547;DHT22;40782;47.264;11.330;2022-12-08T01:39:07;-0.50;1.00
29547;DHT22;40782;47.264;11.330;2022-12-08T01:41:36;-0.50;1.00
29547;DHT22;40782;47.264;11.330;2022-12-08T01:47:10;-0.50;1.00
29547;DHT22;40782;47.264;11.330;2022-12-08T01:49:37;-0.60;1.00
29547;DHT22;40782;47.264;11.330;2022-12-08T01:52:10;-0.60;10.10
29547;DHT22;40782;47.264;11.330;2022-12-08T01:54:45;-0.60;13.50
29547;DHT22;40782;47.264;11.330;2022-12-08T01:57:15;-0.50;35.80
29547;DHT22;40782;47.264;11.330;2022-12-08T01:59:48;-0.50;50.30
29547;DHT22;40782;47.264;11.330;2022-12-08T02:02:16;-0.50;92.80
29547;DHT22;40782;47.264;11.330;2022-12-08T02:04:44;-0.40;83.60
29547;DHT22;40782;47.264;11.330;2022-12-08T02:07:12;-0.40;91.00
29547;DHT22;40782;47.264;11.330;2022-12-08T02:09:42;-0.40;81.40
29547;DHT22;40782;47.264;11.330;2022-12-08T02:12:10;-0.40;52.60
29547;DHT22;40782;47.264;11.330;2022-12-08T02:14:37;-0.50;36.80
29547;DHT22;40782;47.264;11.330;2022-12-08T02:17:13;-0.50;98.40
29547;DHT22;40782;47.264;11.330;2022-12-08T02:20:11;-0.50;56.30
29547;DHT22;40782;47.264;11.330;2022-12-08T02:22:43;-0.50;59.60
29547;DHT22;40782;47.264;11.330;2022-12-08T02:25:22;-0.50;40.80
29547;DHT22;40782;47.264;11.330;2022-12-08T02:28:01;-0.50;65.80
29547;DHT22;40782;47.264;11.330;2022-12-08T02:30:37;-0.50;79.30
29547;DHT22;40782;47.264;11.330;2022-12-08T02:36:06;-0.60;99.90
29547;DHT22;40782;47.264;11.330;2022-12-08T02:38:45;-0.60;99.90
29547;DHT22;40782;47.264;11.330;2022-12-08T02:41:22;-0.60;99.90
29547;DHT22;40782;47.264;11.330;2022-12-08T02:43:56;-0.50;99.90
29547;DHT22;40782;47.264;11.330;2022-12-08T02:46:28;-0.50;99.90
29547;DHT22;40782;47.264;11.330;2022-12-08T02:48:58;-0.50;99.90
29547;DHT22;40782;47.264;11.330;2022-12-08T02:51:27;-0.50;99.90
29547;DHT22;40782;47.264;11.330;2022-12-08T02:53:54;-0.60;86.60
29547;DHT22;40782;47.264;11.330;2022-12-08T02:56:41;-0.60;74.80
29547;DHT22;40782;47.264;11.330;2022-12-08T02:59:23;-0.50;99.90
29547;DHT22;40782;47.264;11.330;2022-12-08T03:02:15;-0.50;77.90
29547;DHT22;40782;47.264;11.330;2022-12-08T03:04:54;-0.60;46.90
29547;DHT22;40782;47.264;11.330;2022-12-08T03:07:30;-0.70;1.00
29547;DHT22;40782;47.264;11.330;2022-12-08T03:10:06;-0.70;1.00
29547;DHT22;40782;47.264;11.330;2022-12-08T03:12:40;-0.80;1.00
29547;DHT22;40782;47.264;11.330;2022-12-08T03:15:11;-0.80;1.00
29547;DHT22;40782;47.264;11.330;2022-12-08T03:17:43;-0.80;8.00
29547;DHT22;40782;47.264;11.330;2022-12-08T03:20:15;-0.80;10.10
29547;DHT22;40782;47.264;11.330;2022-12-08T03:22:46;-0.80;1.00
29547;DHT22;40782;47.264;11.330;2022-12-08T03:25:16;-0.80;1.00
29547;DHT22;40782;47.264;11.330;2022-12-08T03:27:47;-0.90;13.70
29547;DHT22;40782;47.264;11.330;2022-12-08T03:30:14;-0.80;55.80
29547;DHT22;40782;47.264;11.330;2022-12-08T03:32:46;-0.90;30.40
29547;DHT22;40782;47.264;11.330;2022-12-08T03:35:16;-0.90;46.40
29547;DHT22;40782;47.264;11.330;2022-12-08T03:37:46;-0.90;98.20
29547;DHT22;40782;47.264;11.330;2022-12-08T03:40:15;-0.90;99.90
29547;DHT22;40782;47.264;11.330;2022-12-08T03:42:43;-1.00;61.00
29547;DHT22;40782;47.264;11.330;2022-12-08T03:45:10;-1.00;55.20
29547;DHT22;40782;47.264;11.330;2022-12-08T03:47:38;-1.00;54.00
29547;DHT22;40782;47.264;11.330;2022-12-08T03:50:06;-1.00;58.00
29547;DHT22;40782;47.264;11.330;2022-12-08T03:52:33;-1.00;67.70
29547;DHT22;40782;47.264;11.330;2022-12-08T03:55:02;-1.00;99.90
29547;DHT22;40782;47.264;11.330;2022-12-08T03:57:29;-1.00;90.00
29547;DHT22;40782;47.264;11.330;2022-12-08T03:59:56;-1.00;88.70
29547;DHT22;40782;47.264;11.330;2022-12-08T04:02:23;-1.00;72.80
29547;DHT22;40782;47.264;11.330;2022-12-08T04:04:50;-1.00;46.40
29547;DHT22;40782;47.264;11.330;2022-12-08T04:07:17;-1.00;58.40
29547;DHT22;40782;47.264;11.330;2022-12-08T04:09:45;-1.00;99.90
29547;DHT22;40782;47.264;11.330;2022-12-08T04:12:13;-0.90;92.00
29547;DHT22;40782;47.264;11.330;2022-12-08T04:14:40;-1.00;59.30
29547;DHT22;40782;47.264;11.330;2022-12-08T04:17:08;-1.00;78.40
29547;DHT22;40782;47.264;11.330;2022-12-08T04:19:35;-1.10;67.60
29547;DHT22;40782;47.264;11.330;2022-12-08T04:22:02;-1.10;7.70
29547;DHT22;40782;47.264;11.330;2022-12-08T04:24:29;-1.00;35.80
29547;DHT22;40782;47.264;11.330;2022-12-08T04:26:56;-1.00;43.00
29547;DHT22;40782;47.264;11.330;2022-12-08T04:29:25;-0.90;14.30
29547;DHT22;40782;47.264;11.330;2022-12-08T04:31:52;-1.00;4.00
29547;DHT22;40782;47.264;11.330;2022-12-08T04:34:19;-0.90;7.30
29547;DHT22;40782;47.264;11.330;2022-12-08T04:36:46;-0.90;1.00
29547;DHT22;40782;47.264;11.330;2022-12-08T04:39:13;-1.00;1.00
29547;DHT22;40782;47.264;11.330;2022-12-08T04:41:40;-1.00;1.00
29547;DHT22;40782;47.264;11.330;2022-12-08T04:44:07;-1.00;1.00
29547;DHT22;40782;47.264;11.330;2022-12-08T04:46:36;-1.00;1.00
29547;DHT22;40782;47.264;11.330;2022-12-08T04:49:03;-1.00;1.00
29547;DHT22;40782;47.264;11.330;2022-12-08T04:51:30;-1.10;1.00
29547;DHT22;40782;47.264;11.330;2022-12-08T04:53:57;-1.30;1.00
29547;DHT22;40782;47.264;11.330;2022-12-08T04:56:24;-1.30;1.00
29547;DHT22;40782;47.264;11.330;2022-12-08T04:58:52;-1.20;4.60
29547;DHT22;40782;47.264;11.330;2022-12-08T05:01:19;-1.30;1.00
29547;DHT22;40782;47.264;11.330;2022-12-08T05:03:47;-1.40;1.00
29547;DHT22;40782;47.264;11.330;2022-12-08T05:06:15;-1.30;11.00
29547;DHT22;40782;47.264;11.330;2022-12-08T05:08:42;-1.30;6.10
29547;DHT22;40782;47.264;11.330;2022-12-08T05:11:10;-1.30;1.00
29547;DHT22;40782;47.264;11.330;2022-12-08T05:13:38;-1.30;1.00
29547;DHT22;40782;47.264;11.330;2022-12-08T05:16:07;-1.30;11.60
29547;DHT22;40782;47.264;11.330;2022-12-08T05:18:35;-1.30;1.00
29547;DHT22;40782;47.264;11.330;2022-12-08T05:21:05;-1.20;1.00
29547;DHT22;40782;47.264;11.330;2022-12-08T05:23:32;-1.30;1.00
29547;DHT22;40782;47.264;11.330;2022-12-08T05:25:59;-1.30;1.00
29547;DHT22;40782;47.264;11.330;2022-12-08T05:28:26;-1.40;1.00
29547;DHT22;40782;47.264;11.330;2022-12-08T05:30:54;-1.40;1.00
29547;DHT22;40782;47.264;11.330;2022-12-08T05:33:21;-1.40;1.00
29547;DHT22;40782;47.264;11.330;2022-12-08T05:35:48;-1.60;1.00
29547;DHT22;40782;47.264;11.330;2022-12-08T05:38:16;-1.50;4.60
29547;DHT22;40782;47.264;11.330;2022-12-08T05:40:43;-1.50;23.50
29547;DHT22;40782;47.264;11.330;2022-12-08T05:43:11;-1.40;30.00
29547;DHT22;40782;47.264;11.330;2022-12-08T05:45:38;-1.40;16.80
29547;DHT22;40782;47.264;11.330;2022-12-08T05:48:05;-1.40;1.00
29547;DHT22;40782;47.264;11.330;2022-12-08T05:50:32;-1.50;1.00
29547;DHT22;40782;47.264;11.330;2022-12-08T05:52:59;-1.60;12.20
29547;DHT22;40782;47.264;11.330;2022-12-08T05:55:28;-1.60;1.00
29547;DHT22;40782;47.264;11.330;2022-12-08T05:57:55;-1.60;1.00
29547;DHT22;40782;47.264;11.330;2022-12-08T06:00:22;-1.60;21.80
29547;DHT22;40782;47.264;11.330;2022-12-08T06:02:49;-1.60;42.20
29547;DHT22;40782;47.264;11.330;2022-12-08T06:05:16;-1.50;96.40
29547;DHT22;40782;47.264;11.330;2022-12-08T06:07:43;-1.40;53.70
29547;DHT22;40782;47.264;11.330;2022-12-08T06:10:11;-1.50;19.40
29547;DHT22;40782;47.264;11.330;2022-12-08T06:12:40;-1.50;3.10
29547;DHT22;40782;47.264;11.330;2022-12-08T06:15:08;-1.50;52.80
29547;DHT22;40782;47.264;11.330;2022-12-08T06:17:35;-1.40;44.70
29547;DHT22;40782;47.264;11.330;2022-12-08T06:20:03;-1.40;33.80
29547;DHT22;40782;47.264;11.330;2022-12-08T06:22:30;-1.40;62.80
29547;DHT22;40782;47.264;11.330;2022-12-08T06:24:57;-1.50;18.90
29547;DHT22;40782;47.264;11.330;2022-12-08T06:27:25;-1.40;36.70
29547;DHT22;40782;47.264;11.330;2022-12-08T06:29:53;-1.50;52.60
29547;DHT22;40782;47.264;11.330;2022-12-08T06:32:20;-1.50;92.80
29547;DHT22;40782;47.264;11.330;2022-12-08T06:34:48;-1.40;91.20
29547;DHT22;40782;47.264;11.330;2022-12-08T06:37:15;-1.50;42.30
29547;DHT22;40782;47.264;11.330;2022-12-08T06:39:42;-1.40;90.80
29547;DHT22;40782;47.264;11.330;2022-12-08T06:42:09;-1.50;66.30
29547;DHT22;40782;47.264;11.330;2022-12-08T06:44:55;-1.50;92.70
29547;DHT22;40782;47.264;11.330;2022-12-08T06:47:23;-1.50;96.30
29547;DHT22;40782;47.264;11.330;2022-12-08T06:49:50;-1.50;98.60
29547;DHT22;40782;47.264;11.330;2022-12-08T06:52:17;-1.50;92.30
29547;DHT22;40782;47.264;11.330;2022-12-08T06:54:44;-1.50;99.90
29547;DHT22;40782;47.264;11.330;2022-12-08T06:57:11;-1.50;99.90
29547;DHT22;40782;47.264;11.330;2022-12-08T06:59:39;-1.50;69.30
29547;DHT22;40782;47.264;11.330;2022-12-08T07:02:08;-1.60;48.40
29547;DHT22;40782;47.264;11.330;2022-12-08T07:04:36;-1.60;99.90
29547;DHT22;40782;47.264;11.330;2022-12-08T07:07:03;-1.60;89.00
29547;DHT22;40782;47.264;11.330;2022-12-08T07:09:30;-1.60;92.40
29547;DHT22;40782;47.264;11.330;2022-12-08T07:11:57;-1.50;99.90
29547;DHT22;40782;47.264;11.330;2022-12-08T07:14:24;-1.50;96.20
29547;DHT22;40782;47.264;11.330;2022-12-08T07:16:51;-1.50;79.00
29547;DHT22;40782;47.264;11.330;2022-12-08T07:19:20;-1.50;66.30
29547;DHT22;40782;47.264;11.330;2022-12-08T07:21:47;-1.50;60.10
29547;DHT22;40782;47.264;11.330;2022-12-08T07:24:14;-1.50;33.20
29547;DHT22;40782;47.264;11.330;2022-12-08T07:26:41;-1.60;37.30
29547;DHT22;40782;47.264;11.330;2022-12-08T07:29:09;-1.60;73.50
29547;DHT22;40782;47.264;11.330;2022-12-08T07:31:36;-1.50;75.40
29547;DHT22;40782;47.264;11.330;2022-12-08T07:34:03;-1.50;60.90
29547;DHT22;40782;47.264;11.330;2022-12-08T07:36:32;-1.50;83.20
29547;DHT22;40782;47.264;11.330;2022-12-08T07:39:00;-1.60;16.30
29547;DHT22;40782;47.264;11.330;2022-12-08T07:41:27;-1.60;19.90
29547;DHT22;40782;47.264;11.330;2022-12-08T07:43:55;-1.60;55.00
29547;DHT22;40782;47.264;11.330;2022-12-08T07:46:24;-1.60;81.10
29547;DHT22;40782;47.264;11.330;2022-12-08T07:48:51;-1.60;99.90
29547;DHT22;40782;47.264;11.330;2022-12-08T07:51:18;-1.50;99.90
29547;DHT22;40782;47.264;11.330;2022-12-08T07:53:48;-1.40;99.90
29547;DHT22;40782;47.264;11.330;2022-12-08T07:56:16;-1.30;99.90
29547;DHT22;40782;47.264;11.330;2022-12-08T07:58:43;-1.30;99.90
29547;DHT22;40782;47.264;11.330;2022-12-08T08:01:22;-1.30;99.90
29547;DHT22;40782;47.264;11.330;2022-12-08T08:03:51;-1.40;99.90
29547;DHT22;40782;47.264;11.330;2022-12-08T08:06:18;-1.30;99.90
29547;DHT22;40782;47.264;11.330;2022-12-08T08:08:46;-1.30;99.50
29547;DHT22;40782;47.264;11.330;2022-12-08T08:11:14;-1.20;70.70
29547;DHT22;40782;47.264;11.330;2022-12-08T08:13:41;-1.20;54.60
29547;DHT22;40782;47.264;11.330;2022-12-08T08:16:09;-1.20;29.30
29547;DHT22;40782;47.264;11.330;2022-12-08T08:18:38;-1.10;1.00
29547;DHT22;40782;47.264;11.330;2022-12-08T08:21:06;-1.00;1.00
29547;DHT22;40782;47.264;11.330;2022-12-08T08:23:33;-1.00;1.00
29547;DHT22;40782;47.264;11.330;2022-12-08T08:26:03;-1.00;1.00
29547;DHT22;40782;47.264;11.330;2022-12-08T08:28:31;-1.00;1.00
29547;DHT22;40782;47.264;11.330;2022-12-08T08:30:59;-0.90;1.00
29547;DHT22;40782;47.264;11.330;2022-12-08T08:33:26;-0.80;1.00
29547;DHT22;40782;47.264;11.330;2022-12-08T08:35:54;-0.70;1.00
29547;DHT22;40782;47.264;11.330;2022-12-08T08:38:21;-0.70;1.00
29547;DHT22;40782;47.264;11.330;2022-12-08T08:40:48;-0.70;1.00
29547;DHT22;40782;47.264;11.330;2022-12-08T08:43:17;-0.70;1.00
29547;DHT22;40782;47.264;11.330;2022-12-08T08:45:55;-0.60;1.00
29547;DHT22;40782;47.264;11.330;2022-12-08T08:48:24;-0.60;1.00
29547;DHT22;40782;47.264;11.330;2022-12-08T08:50:51;-0.50;1.00
29547;DHT22;40782;47.264;11.330;2022-12-08T08:53:18;-0.40;1.00
29547;DHT22;40782;47.264;11.330;2022-12-08T08:55:46;-0.30;1.00
29547;DHT22;40782;47.264;11.330;2022-12-08T08:58:13;-0.20;1.00
29547;DHT22;40782;47.264;11.330;2022-12-08T09:00:42;-0.20;1.00
29547;DHT22;40782;47.264;11.330;2022-12-08T09:03:09;-0.20;1.00
29547;DHT22;40782;47.264;11.330;2022-12-08T09:05:37;-0.10;1.00
29547;DHT22;40782;47.264;11.330;2022-12-08T09:08:05;0.00;1.00
29547;DHT22;40782;47.264;11.330;2022-12-08T09:10:32;0.10;1.00
29547;DHT22;40782;47.264;11.330;2022-12-08T09:12:59;0.10;1.00
29547;DHT22;40782;47.264;11.330;2022-12-08T09:15:26;0.10;1.00
29547;DHT22;40782;47.264;11.330;2022-12-08T09:17:55;0.20;1.00
29547;DHT22;40782;47.264;11.330;2022-12-08T09:20:22;0.40;1.00
29547;DHT22;40782;47.264;11.330;2022-12-08T09:22:49;0.50;1.00
29547;DHT22;40782;47.264;11.330;2022-12-08T09:25:17;0.60;1.00
29547;DHT22;40782;47.264;11.330;2022-12-08T09:27:44;0.70;1.00
29547;DHT22;40782;47.264;11.330;2022-12-08T09:30:11;0.90;1.00
29547;DHT22;40782;47.264;11.330;2022-12-08T09:32:39;1.10;1.00
29547;DHT22;40782;47.264;11.330;2022-12-08T09:35:08;1.30;1.00
29547;DHT22;40782;47.264;11.330;2022-12-08T09:37:35;1.40;1.00
29547;DHT22;40782;47.264;11.330;2022-12-08T09:40:02;1.60;1.00
29547;DHT22;40782;47.264;11.330;2022-12-08T09:42:37;1.70;1.00
29547;DHT22;40782;47.264;11.330;2022-12-08T09:45:10;1.90;1.00
29547;DHT22;40782;47.264;11.330;2022-12-08T09:47:41;2.20;1.00
29547;DHT22;40782;47.264;11.330;2022-12-08T09:50:14;2.40;1.00
29547;DHT22;40782;47.264;11.330;2022-12-08T09:52:48;2.70;1.00
29547;DHT22;40782;47.264;11.330;2022-12-08T09:55:22;2.80;1.00
29547;DHT22;40782;47.264;11.330;2022-12-08T09:57:55;3.10;1.00
29547;DHT22;40782;47.264;11.330;2022-12-08T10:00:23;3.50;99.90
29547;DHT22;40782;47.264;11.330;2022-12-08T10:02:51;3.60;99.90
29547;DHT22;40782;47.264;11.330;2022-12-08T10:05:19;3.70;99.90
29547;DHT22;40782;47.264;11.330;2022-12-08T10:07:59;3.80;99.90
29547;DHT22;40782;47.264;11.330;2022-12-08T10:10:36;4.00;99.90
29547;DHT22;40782;47.264;11.330;2022-12-08T10:13:10;4.20;99.90
29547;DHT22;40782;47.264;11.330;2022-12-08T10:15:45;4.40;99.90
29547;DHT22;40782;47.264;11.330;2022-12-08T10:18:16;4.60;99.90
29547;DHT22;40782;47.264;11.330;2022-12-08T10:20:47;4.70;99.90
29547;DHT22;40782;47.264;11.330;2022-12-08T10:23:23;5.00;99.90
29547;DHT22;40782;47.264;11.330;2022-12-08T10:25:56;5.00;99.90
29547;DHT22;40782;47.264;11.330;2022-12-08T10:28:24;5.00;99.90
29547;DHT22;40782;47.264;11.330;2022-12-08T10:30:52;5.10;99.90
29547;DHT22;40782;47.264;11.330;2022-12-08T10:33:20;5.30;99.90
29547;DHT22;40782;47.264;11.330;2022-12-08T10:35:51;5.50;99.90
29547;DHT22;40782;47.264;11.330;2022-12-08T10:38:21;5.80;99.90
29547;DHT22;40782;47.264;11.330;2022-12-08T10:40:51;6.00;99.90
29547;DHT22;40782;47.264;11.330;2022-12-08T10:43:21;5.90;99.90
29547;DHT22;40782;47.264;11.330;2022-12-08T10:45:49;6.10;99.90
29547;DHT22;40782;47.264;11.330;2022-12-08T10:48:18;6.30;99.90
29547;DHT22;40782;47.264;11.330;2022-12-08T10:50:54;6.50;99.90
29547;DHT22;40782;47.264;11.330;2022-12-08T10:53:23;6.60;99.90
29547;DHT22;40782;47.264;11.330;2022-12-08T10:55:52;6.60;99.90
29547;DHT22;40782;47.264;11.330;2022-12-08T10:58:27;7.00;99.90
29547;DHT22;40782;47.264;11.330;2022-12-08T11:00:56;7.00;99.90
29547;DHT22;40782;47.264;11.330;2022-12-08T11:03:27;7.20;99.90
29547;DHT22;40782;47.264;11.330;2022-12-08T11:05:58;7.40;99.90
29547;DHT22;40782;47.264;11.330;2022-12-08T11:08:26;7.50;99.90
29547;DHT22;40782;47.264;11.330;2022-12-08T11:10:54;7.70;99.90
29547;DHT22;40782;47.264;11.330;2022-12-08T11:13:23;7.90;99.90
29547;DHT22;40782;47.264;11.330;2022-12-08T11:15:51;7.90;99.90
29547;DHT22;40782;47.264;11.330;2022-12-08T11:18:26;7.90;99.90
29547;DHT22;40782;47.264;11.330;2022-12-08T11:21:10;8.00;99.90
29547;DHT22;40782;47.264;11.330;2022-12-08T11:23:37;8.00;99.90
29547;DHT22;40782;47.264;11.330;2022-12-08T11:26:14;8.20;99.90
29547;DHT22;40782;47.264;11.330;2022-12-08T11:28:44;8.30;99.90
29547;DHT22;40782;47.264;11.330;2022-12-08T11:31:20;8.40;99.90
29547;DHT22;40782;47.264;11.330;2022-12-08T11:33:48;8.40;99.90
29547;DHT22;40782;47.264;11.330;2022-12-08T11:36:21;8.40;99.90
29547;DHT22;40782;47.264;11.330;2022-12-08T11:38:58;8.70;99.90
29547;DHT22;40782;47.264;11.330;2022-12-08T11:41:28;8.70;99.90
29547;DHT22;40782;47.264;11.330;2022-12-08T11:44:03;8.80;99.90
29547;DHT22;40782;47.264;11.330;2022-12-08T11:46:35;8.90;99.90
29547;DHT22;40782;47.264;11.330;2022-12-08T11:49:08;9.20;99.90
29547;DHT22;40782;47.264;11.330;2022-12-08T11:51:41;9.30;99.90
29547;DHT22;40782;47.264;11.330;2022-12-08T11:54:17;9.40;99.90
29547;DHT22;40782;47.264;11.330;2022-12-08T11:56:50;9.50;99.90
29547;DHT22;40782;47.264;11.330;2022-12-08T11:59:24;9.50;99.90
29547;DHT22;40782;47.264;11.330;2022-12-08T12:01:52;9.60;99.90
29547;DHT22;40782;47.264;11.330;2022-12-08T12:04:23;9.80;99.90
29547;DHT22;40782;47.264;11.330;2022-12-08T12:07:27;10.10;99.90
29547;DHT22;40782;47.264;11.330;2022-12-08T12:10:11;10.10;99.90
29547;DHT22;40782;47.264;11.330;2022-12-08T12:12:56;10.50;99.90
29547;DHT22;40782;47.264;11.330;2022-12-08T12:15:57;10.70;99.90
29547;DHT22;40782;47.264;11.330;2022-12-08T12:18:33;10.60;99.90
29547;DHT22;40782;47.264;11.330;2022-12-08T12:21:09;10.20;99.90
29547;DHT22;40782;47.264;11.330;2022-12-08T12:23:42;10.40;99.90
29547;DHT22;40782;47.264;11.330;2022-12-08T12:26:18;10.60;99.90
29547;DHT22;40782;47.264;11.330;2022-12-08T12:28:49;10.40;99.90
29547;DHT22;40782;47.264;11.330;2022-12-08T12:31:20;10.60;99.90
29547;DHT22;40782;47.264;11.330;2022-12-08T12:33:50;10.80;99.90
29547;DHT22;40782;47.264;11.330;2022-12-08T12:36:19;10.70;99.90
29547;DHT22;40782;47.264;11.330;2022-12-08T12:38:51;10.90;99.90
29547;DHT22;40782;47.264;11.330;2022-12-08T12:41:36;10.80;99.90
29547;DHT22;40782;47.264;11.330;2022-12-08T12:44:38;10.80;99.90
29547;DHT22;40782;47.264;11.330;2022-12-08T12:47:11;10.90;99.90
29547;DHT22;40782;47.264;11.330;2022-12-08T12:50:03;11.20;99.90
29547;DHT22;40782;47.264;11.330;2022-12-08T12:52:42;11.20;99.90
29547;DHT22;40782;47.264;11.330;2022-12-08T12:58:38;11.20;99.90
29547;DHT22;40782;47.264;11.330;2022-12-08T13:01:35;10.90;99.90
29547;DHT22;40782;47.264;11.330;2022-12-08T13:04:05;10.90;99.90
29547;DHT22;40782;47.264;11.330;2022-12-08T13:06:38;10.50;99.90
29547;DHT22;40782;47.264;11.330;2022-12-08T13:09:19;10.30;99.90
29547;DHT22;40782;47.264;11.330;2022-12-08T13:11:50;10.30;99.90
29547;DHT22;40782;47.264;11.330;2022-12-08T13:14:33;10.80;99.90
29547;DHT22;40782;47.264;11.330;2022-12-08T13:17:05;10.90;99.90
29547;DHT22;40782;47.264;11.330;2022-12-08T13:19:35;11.00;99.90
29547;DHT22;40782;47.264;11.330;2022-12-08T13:22:03;11.00;99.90
29547;DHT22;40782;47.264;11.330;2022-12-08T13:24:50;11.00;99.90
29547;DHT22;40782;47.264;11.330;2022-12-08T13:27:32;11.10;99.90
29547;DHT22;40782;47.264;11.330;2022-12-08T13:30:41;11.10;99.90
29547;DHT22;40782;47.264;11.330;2022-12-08T13:33:11;11.10;99.90
29547;DHT22;40782;47.264;11.330;2022-12-08T13:35:46;10.90;99.90
29547;DHT22;40782;47.264;11.330;2022-12-08T13:38:18;10.90;99.90
29547;DHT22;40782;47.264;11.330;2022-12-08T13:40:46;10.90;99.90
29547;DHT22;40782;47.264;11.330;2022-12-08T13:43:17;11.10;99.90
29547;DHT22;40782;47.264;11.330;2022-12-08T13:45:50;11.10;99.90
29547;DHT22;40782;47.264;11.330;2022-12-08T13:48:22;11.20;99.90
29547;DHT22;40782;47.264;11.330;2022-12-08T13:50:54;11.30;99.90
29547;DHT22;40782;47.264;11.330;2022-12-08T13:53:25;11.40;99.90
29547;DHT22;40782;47.264;11.330;2022-12-08T13:55:56;11.20;99.90
29547;DHT22;40782;47.264;11.330;2022-12-08T13:58:25;10.90;99.90
29547;DHT22;40782;47.264;11.330;2022-12-08T14:00:59;10.60;99.90
29547;DHT22;40782;47.264;11.330;2022-12-08T14:03:28;10.40;99.90
29547;DHT22;40782;47.264;11.330;2022-12-08T14:05:56;10.40;99.90
29547;DHT22;40782;47.264;11.330;2022-12-08T14:08:30;10.20;99.90
29547;DHT22;40782;47.264;11.330;2022-12-08T14:10:59;10.00;99.90
29547;DHT22;40782;47.264;11.330;2022-12-08T14:13:29;9.70;99.90
29547;DHT22;40782;47.264;11.330;2022-12-08T14:15:58;9.80;99.90
29547;DHT22;40782;47.264;11.330;2022-12-08T14:18:28;9.60;99.90
29547;DHT22;40782;47.264;11.330;2022-12-08T14:21:04;8.90;99.90
29547;DHT22;40782;47.264;11.330;2022-12-08T14:23:35;8.20;99.90
29547;DHT22;40782;47.264;11.330;2022-12-08T14:26:03;7.70;99.90
29547;DHT22;40782;47.264;11.330;2022-12-08T14:28:31;7.20;99.90
29547;DHT22;40782;47.264;11.330;2022-12-08T14:31:02;6.70;99.90
29547;DHT22;40782;47.264;11.330;2022-12-08T14:33:30;6.20;99.90
29547;DHT22;40782;47.264;11.330;2022-12-08T14:35:58;5.90;99.90
29547;DHT22;40782;47.264;11.330;2022-12-08T14:38:25;5.70;99.90
29547;DHT22;40782;47.264;11.330;2022-12-08T14:41:03;5.30;99.90
29547;DHT22;40782;47.264;11.330;2022-12-08T14:43:31;5.00;99.90
29547;DHT22;40782;47.264;11.330;2022-12-08T14:46:01;4.90;99.90
29547;DHT22;40782;47.264;11.330;2022-12-08T14:48:40;4.70;99.90
29547;DHT22;40782;47.264;11.330;2022-12-08T14:51:24;4.60;99.90
29547;DHT22;40782;47.264;11.330;2022-12-08T14:53:54;4.50;99.90
29547;DHT22;40782;47.264;11.330;2022-12-08T14:56:26;4.40;99.90
29547;DHT22;40782;47.264;11.330;2022-12-08T14:59:11;4.30;99.90
29547;DHT22;40782;47.264;11.330;2022-12-08T15:01:41;4.20;99.90
29547;DHT22;40782;47.264;11.330;2022-12-08T15:04:15;4.00;99.90
29547;DHT22;40782;47.264;11.330;2022-12-08T15:06:50;3.80;99.90
29547;DHT22;40782;47.264;11.330;2022-12-08T15:09:29;3.60;99.90
29547;DHT22;40782;47.264;11.330;2022-12-08T15:12:01;3.50;99.90
29547;DHT22;40782;47.264;11.330;2022-12-08T15:14:30;3.30;99.90
29547;DHT22;40782;47.264;11.330;2022-12-08T15:16:59;3.30;99.90
29547;DHT22;40782;47.264;11.330;2022-12-08T15:19:28;3.30;99.90
29547;DHT22;40782;47.264;11.330;2022-12-08T15:21:57;3.20;99.90
29547;DHT22;40782;47.264;11.330;2022-12-08T15:24:27;3.10;99.90
29547;DHT22;40782;47.264;11.330;2022-12-08T15:26:55;3.10;99.90
29547;DHT22;40782;47.264;11.330;2022-12-08T15:29:24;2.90;99.90
29547;DHT22;40782;47.264;11.330;2022-12-08T15:31:54;2.80;99.90
29547;DHT22;40782;47.264;11.330;2022-12-08T15:34:23;2.70;99.90
29547;DHT22;40782;47.264;11.330;2022-12-08T15:36:52;2.70;99.90
29547;DHT22;40782;47.264;11.330;2022-12-08T15:39:27;2.60;99.90
29547;DHT22;40782;47.264;11.330;2022-12-08T15:41:55;2.50;99.90
29547;DHT22;40782;47.264;11.330;2022-12-08T15:44:23;2.60;99.90
29547;DHT22;40782;47.264;11.330;2022-12-08T15:46:50;2.60;99.90
29547;DHT22;40782;47.264;11.330;2022-12-08T15:49:19;2.60;99.90
29547;DHT22;40782;47.264;11.330;2022-12-08T15:51:48;2.60;99.90
29547;DHT22;40782;47.264;11.330;2022-12-08T15:54:15;2.40;99.90